Weikert, Pennsylvania
Current Conditions -  °F | °C
As of 3:53 PM on Saturday 25 Oct 2014 (Local Time) from KSEG Reporting Station
Clear Clear  
Wind Chill: 70°   Ceiling: Unl
Heat Index: 70°   Visibility: 10mi
Dew Point: 45°   Wind: 6mph
Humidity: 41%   Direction: NA
Pressure: 29.7"   Gusts: 17mph
Location:  40.86°N, 77.3°W
Report Text: KSEG 251953Z AUTO VRB05G15KT 10SM CLR 21/07 A2970 RMK AO2 SLP057 T02110072
Loading
Personal Weather Stations






























Interactive Weather Map
Tropical Storm Tracking
New forecast layout! Learn more

10-Day Weather Forecast

Advertisements
Track Severe Weather on mobile